sensor_id;sensor_type;location;lat;lon;timestamp;P1;durP1;ratioP1;P2;durP2;ratioP2
40537;SDS011;27925;41.874;12.526;2024-03-02T00:00:14;7.88;;;2.20;;
40537;SDS011;27925;41.874;12.526;2024-03-02T00:02:43;6.75;;;2.25;;
40537;SDS011;27925;41.874;12.526;2024-03-02T00:05:14;6.85;;;2.40;;
40537;SDS011;27925;41.874;12.526;2024-03-02T00:07:41;9.23;;;2.50;;
40537;SDS011;27925;41.874;12.526;2024-03-02T00:10:09;8.77;;;2.55;;
40537;SDS011;27925;41.874;12.526;2024-03-02T00:12:39;5.10;;;2.10;;
40537;SDS011;27925;41.874;12.526;2024-03-02T00:17:54;5.80;;;2.00;;
40537;SDS011;27925;41.874;12.526;2024-03-02T00:20:23;5.78;;;2.53;;
40537;SDS011;27925;41.874;12.526;2024-03-02T00:22:54;5.43;;;1.95;;
40537;SDS011;27925;41.874;12.526;2024-03-02T00:28:16;3.47;;;1.80;;
40537;SDS011;27925;41.874;12.526;2024-03-02T00:33:36;5.22;;;2.22;;
40537;SDS011;27925;41.874;12.526;2024-03-02T00:36:05;3.40;;;2.03;;
40537;SDS011;27925;41.874;12.526;2024-03-02T00:38:32;5.40;;;2.45;;
40537;SDS011;27925;41.874;12.526;2024-03-02T00:40:59;3.83;;;2.03;;
40537;SDS011;27925;41.874;12.526;2024-03-02T00:46:15;5.32;;;2.30;;
40537;SDS011;27925;41.874;12.526;2024-03-02T00:48:56;5.20;;;2.08;;
40537;SDS011;27925;41.874;12.526;2024-03-02T00:51:24;8.70;;;2.40;;
40537;SDS011;27925;41.874;12.526;2024-03-02T00:53:51;4.90;;;2.28;;
40537;SDS011;27925;41.874;12.526;2024-03-02T00:56:20;5.93;;;1.58;;
40537;SDS011;27925;41.874;12.526;2024-03-02T00:58:46;4.60;;;1.83;;
40537;SDS011;27925;41.874;12.526;2024-03-02T01:01:12;4.85;;;2.20;;
40537;SDS011;27925;41.874;12.526;2024-03-02T01:03:37;4.20;;;1.83;;
40537;SDS011;27925;41.874;12.526;2024-03-02T01:06:04;4.18;;;1.75;;
40537;SDS011;27925;41.874;12.526;2024-03-02T01:08:30;5.82;;;1.77;;
40537;SDS011;27925;41.874;12.526;2024-03-02T01:10:56;4.15;;;1.80;;
40537;SDS011;27925;41.874;12.526;2024-03-02T01:13:22;3.47;;;1.70;;
40537;SDS011;27925;41.874;12.526;2024-03-02T01:15:48;5.30;;;1.70;;
40537;SDS011;27925;41.874;12.526;2024-03-02T01:18:14;4.15;;;1.98;;
40537;SDS011;27925;41.874;12.526;2024-03-02T01:20:40;6.13;;;2.00;;
40537;SDS011;27925;41.874;12.526;2024-03-02T01:23:05;5.13;;;2.30;;
40537;SDS011;27925;41.874;12.526;2024-03-02T01:25:31;3.28;;;1.75;;
40537;SDS011;27925;41.874;12.526;2024-03-02T01:27:57;3.85;;;1.80;;
40537;SDS011;27925;41.874;12.526;2024-03-02T01:30:23;4.97;;;1.85;;
40537;SDS011;27925;41.874;12.526;2024-03-02T01:32:48;4.22;;;1.67;;
40537;SDS011;27925;41.874;12.526;2024-03-02T01:35:14;3.35;;;1.63;;
40537;SDS011;27925;41.874;12.526;2024-03-02T01:37:40;5.32;;;1.83;;
40537;SDS011;27925;41.874;12.526;2024-03-02T01:40:06;3.97;;;1.83;;
40537;SDS011;27925;41.874;12.526;2024-03-02T01:42:37;3.95;;;1.88;;
40537;SDS011;27925;41.874;12.526;2024-03-02T01:45:05;3.65;;;1.80;;
40537;SDS011;27925;41.874;12.526;2024-03-02T01:47:31;3.80;;;2.17;;
40537;SDS011;27925;41.874;12.526;2024-03-02T01:49:57;3.08;;;1.75;;
40537;SDS011;27925;41.874;12.526;2024-03-02T01:52:24;7.50;;;2.70;;
40537;SDS011;27925;41.874;12.526;2024-03-02T01:54:49;3.45;;;1.88;;
40537;SDS011;27925;41.874;12.526;2024-03-02T01:57:15;3.67;;;2.10;;
40537;SDS011;27925;41.874;12.526;2024-03-02T01:59:41;5.35;;;2.20;;
40537;SDS011;27925;41.874;12.526;2024-03-02T02:02:07;3.78;;;1.70;;
40537;SDS011;27925;41.874;12.526;2024-03-02T02:04:33;5.57;;;2.08;;
40537;SDS011;27925;41.874;12.526;2024-03-02T02:06:59;4.57;;;2.22;;
40537;SDS011;27925;41.874;12.526;2024-03-02T02:09:25;4.47;;;2.00;;
40537;SDS011;27925;41.874;12.526;2024-03-02T02:11:51;3.50;;;1.63;;
40537;SDS011;27925;41.874;12.526;2024-03-02T02:14:17;3.10;;;1.60;;
40537;SDS011;27925;41.874;12.526;2024-03-02T02:16:43;2.97;;;1.60;;
40537;SDS011;27925;41.874;12.526;2024-03-02T02:19:09;3.75;;;1.70;;
40537;SDS011;27925;41.874;12.526;2024-03-02T02:21:35;2.85;;;1.60;;
40537;SDS011;27925;41.874;12.526;2024-03-02T02:24:01;3.28;;;1.90;;
40537;SDS011;27925;41.874;12.526;2024-03-02T02:26:28;2.88;;;1.50;;
40537;SDS011;27925;41.874;12.526;2024-03-02T02:28:54;3.78;;;1.80;;
40537;SDS011;27925;41.874;12.526;2024-03-02T02:31:20;1.77;;;1.30;;
40537;SDS011;27925;41.874;12.526;2024-03-02T02:33:46;2.60;;;1.50;;
40537;SDS011;27925;41.874;12.526;2024-03-02T02:36:11;2.47;;;1.42;;
40537;SDS011;27925;41.874;12.526;2024-03-02T02:38:42;2.22;;;1.45;;
40537;SDS011;27925;41.874;12.526;2024-03-02T02:41:11;2.15;;;1.40;;
40537;SDS011;27925;41.874;12.526;2024-03-02T02:43:38;2.05;;;1.33;;
40537;SDS011;27925;41.874;12.526;2024-03-02T02:46:05;2.60;;;1.40;;
40537;SDS011;27925;41.874;12.526;2024-03-02T02:48:30;2.90;;;1.58;;
40537;SDS011;27925;41.874;12.526;2024-03-02T02:50:56;2.78;;;1.73;;
40537;SDS011;27925;41.874;12.526;2024-03-02T02:53:22;2.90;;;1.90;;
40537;SDS011;27925;41.874;12.526;2024-03-02T02:55:47;2.17;;;1.42;;
40537;SDS011;27925;41.874;12.526;2024-03-02T02:58:13;2.90;;;1.60;;
40537;SDS011;27925;41.874;12.526;2024-03-02T03:00:39;3.90;;;1.80;;
40537;SDS011;27925;41.874;12.526;2024-03-02T03:03:05;3.13;;;1.40;;
40537;SDS011;27925;41.874;12.526;2024-03-02T03:05:31;3.15;;;1.60;;
40537;SDS011;27925;41.874;12.526;2024-03-02T03:07:57;2.55;;;1.52;;
40537;SDS011;27925;41.874;12.526;2024-03-02T03:10:22;2.58;;;1.60;;
40537;SDS011;27925;41.874;12.526;2024-03-02T03:12:50;3.63;;;1.52;;
40537;SDS011;27925;41.874;12.526;2024-03-02T03:15:16;3.03;;;1.60;;
40537;SDS011;27925;41.874;12.526;2024-03-02T03:17:42;1.85;;;1.40;;
40537;SDS011;27925;41.874;12.526;2024-03-02T03:20:08;3.22;;;1.65;;
40537;SDS011;27925;41.874;12.526;2024-03-02T03:22:37;2.67;;;1.48;;
40537;SDS011;27925;41.874;12.526;2024-03-02T03:25:04;5.25;;;1.90;;
40537;SDS011;27925;41.874;12.526;2024-03-02T03:27:30;4.90;;;1.80;;
40537;SDS011;27925;41.874;12.526;2024-03-02T03:29:56;2.47;;;1.48;;
40537;SDS011;27925;41.874;12.526;2024-03-02T03:32:21;2.28;;;1.42;;
40537;SDS011;27925;41.874;12.526;2024-03-02T03:34:47;2.17;;;1.25;;
40537;SDS011;27925;41.874;12.526;2024-03-02T03:37:13;2.38;;;1.42;;
40537;SDS011;27925;41.874;12.526;2024-03-02T03:39:39;1.67;;;1.38;;
40537;SDS011;27925;41.874;12.526;2024-03-02T03:42:05;2.67;;;1.45;;
40537;SDS011;27925;41.874;12.526;2024-03-02T03:44:31;4.22;;;1.50;;
40537;SDS011;27925;41.874;12.526;2024-03-02T03:46:57;4.22;;;1.58;;
40537;SDS011;27925;41.874;12.526;2024-03-02T03:49:23;2.20;;;1.33;;
40537;SDS011;27925;41.874;12.526;2024-03-02T03:51:48;2.38;;;1.35;;
40537;SDS011;27925;41.874;12.526;2024-03-02T03:54:14;2.42;;;1.15;;
40537;SDS011;27925;41.874;12.526;2024-03-02T03:56:40;3.17;;;1.42;;
40537;SDS011;27925;41.874;12.526;2024-03-02T03:59:06;2.40;;;1.20;;
40537;SDS011;27925;41.874;12.526;2024-03-02T04:01:31;2.60;;;1.50;;
40537;SDS011;27925;41.874;12.526;2024-03-02T04:03:57;3.15;;;1.17;;
40537;SDS011;27925;41.874;12.526;2024-03-02T04:06:23;1.40;;;1.00;;
40537;SDS011;27925;41.874;12.526;2024-03-02T04:08:49;2.25;;;1.23;;
40537;SDS011;27925;41.874;12.526;2024-03-02T04:11:14;3.22;;;1.27;;
40537;SDS011;27925;41.874;12.526;2024-03-02T04:13:40;2.63;;;1.30;;
40537;SDS011;27925;41.874;12.526;2024-03-02T04:16:06;2.53;;;1.30;;
40537;SDS011;27925;41.874;12.526;2024-03-02T04:18:31;3.67;;;1.75;;
40537;SDS011;27925;41.874;12.526;2024-03-02T04:20:57;3.38;;;1.83;;
40537;SDS011;27925;41.874;12.526;2024-03-02T04:23:26;2.53;;;1.48;;
40537;SDS011;27925;41.874;12.526;2024-03-02T04:25:52;3.92;;;1.50;;
40537;SDS011;27925;41.874;12.526;2024-03-02T04:28:18;4.25;;;1.80;;
40537;SDS011;27925;41.874;12.526;2024-03-02T04:30:43;3.17;;;1.63;;
40537;SDS011;27925;41.874;12.526;2024-03-02T04:33:09;3.47;;;1.67;;
40537;SDS011;27925;41.874;12.526;2024-03-02T04:35:38;4.00;;;2.20;;
40537;SDS011;27925;41.874;12.526;2024-03-02T04:38:04;4.68;;;1.95;;
40537;SDS011;27925;41.874;12.526;2024-03-02T04:40:29;4.60;;;2.20;;
40537;SDS011;27925;41.874;12.526;2024-03-02T04:42:55;3.72;;;2.10;;
40537;SDS011;27925;41.874;12.526;2024-03-02T04:45:21;4.47;;;1.90;;
40537;SDS011;27925;41.874;12.526;2024-03-02T04:47:47;4.18;;;2.08;;
40537;SDS011;27925;41.874;12.526;2024-03-02T04:50:12;3.85;;;2.10;;
40537;SDS011;27925;41.874;12.526;2024-03-02T04:52:38;4.18;;;2.38;;
40537;SDS011;27925;41.874;12.526;2024-03-02T04:55:04;3.65;;;2.20;;
40537;SDS011;27925;41.874;12.526;2024-03-02T04:57:39;4.93;;;2.33;;
40537;SDS011;27925;41.874;12.526;2024-03-02T05:00:05;5.00;;;2.30;;
40537;SDS011;27925;41.874;12.526;2024-03-02T05:02:33;6.32;;;3.17;;
40537;SDS011;27925;41.874;12.526;2024-03-02T05:04:59;4.25;;;2.45;;
40537;SDS011;27925;41.874;12.526;2024-03-02T05:07:25;3.60;;;1.90;;
40537;SDS011;27925;41.874;12.526;2024-03-02T05:09:51;4.40;;;2.28;;
40537;SDS011;27925;41.874;12.526;2024-03-02T05:12:17;4.43;;;2.00;;
40537;SDS011;27925;41.874;12.526;2024-03-02T05:14:48;3.25;;;1.75;;
40537;SDS011;27925;41.874;12.526;2024-03-02T05:17:14;3.55;;;2.00;;
40537;SDS011;27925;41.874;12.526;2024-03-02T05:19:40;3.60;;;1.80;;
40537;SDS011;27925;41.874;12.526;2024-03-02T05:22:06;4.18;;;2.00;;
40537;SDS011;27925;41.874;12.526;2024-03-02T05:24:31;5.15;;;2.20;;
40537;SDS011;27925;41.874;12.526;2024-03-02T05:26:57;4.00;;;2.40;;
40537;SDS011;27925;41.874;12.526;2024-03-02T05:29:23;3.45;;;2.10;;
40537;SDS011;27925;41.874;12.526;2024-03-02T05:31:48;3.92;;;2.28;;
40537;SDS011;27925;41.874;12.526;2024-03-02T05:34:14;3.67;;;2.20;;
40537;SDS011;27925;41.874;12.526;2024-03-02T05:36:40;3.63;;;2.20;;
40537;SDS011;27925;41.874;12.526;2024-03-02T05:39:06;3.88;;;2.22;;
40537;SDS011;27925;41.874;12.526;2024-03-02T05:41:34;8.48;;;2.33;;
40537;SDS011;27925;41.874;12.526;2024-03-02T05:44:00;5.85;;;1.90;;
40537;SDS011;27925;41.874;12.526;2024-03-02T05:46:26;3.08;;;1.80;;
40537;SDS011;27925;41.874;12.526;2024-03-02T05:48:52;6.20;;;1.98;;
40537;SDS011;27925;41.874;12.526;2024-03-02T05:51:18;6.75;;;2.03;;
40537;SDS011;27925;41.874;12.526;2024-03-02T05:53:44;4.85;;;2.22;;
40537;SDS011;27925;41.874;12.526;2024-03-02T05:56:09;6.40;;;2.97;;
40537;SDS011;27925;41.874;12.526;2024-03-02T05:58:37;7.68;;;4.30;;
40537;SDS011;27925;41.874;12.526;2024-03-02T06:01:12;7.00;;;3.35;;
40537;SDS011;27925;41.874;12.526;2024-03-02T06:03:37;3.95;;;2.10;;
40537;SDS011;27925;41.874;12.526;2024-03-02T06:06:03;5.50;;;2.50;;
40537;SDS011;27925;41.874;12.526;2024-03-02T06:08:29;5.40;;;2.13;;
40537;SDS011;27925;41.874;12.526;2024-03-02T06:10:55;7.88;;;2.72;;
40537;SDS011;27925;41.874;12.526;2024-03-02T06:13:21;4.35;;;2.30;;
40537;SDS011;27925;41.874;12.526;2024-03-02T06:15:47;3.60;;;2.13;;
40537;SDS011;27925;41.874;12.526;2024-03-02T06:18:12;3.58;;;2.20;;
40537;SDS011;27925;41.874;12.526;2024-03-02T06:20:38;4.68;;;2.15;;
40537;SDS011;27925;41.874;12.526;2024-03-02T06:23:04;5.50;;;2.42;;
40537;SDS011;27925;41.874;12.526;2024-03-02T06:25:30;4.57;;;2.50;;
40537;SDS011;27925;41.874;12.526;2024-03-02T06:27:56;5.30;;;2.22;;
40537;SDS011;27925;41.874;12.526;2024-03-02T06:30:21;4.38;;;2.35;;
40537;SDS011;27925;41.874;12.526;2024-03-02T06:32:47;6.45;;;2.40;;
40537;SDS011;27925;41.874;12.526;2024-03-02T06:35:13;4.72;;;2.42;;
40537;SDS011;27925;41.874;12.526;2024-03-02T06:37:38;4.97;;;2.63;;
40537;SDS011;27925;41.874;12.526;2024-03-02T06:40:07;5.03;;;2.45;;
40537;SDS011;27925;41.874;12.526;2024-03-02T06:42:34;7.63;;;2.60;;
40537;SDS011;27925;41.874;12.526;2024-03-02T06:45:00;5.75;;;2.90;;
40537;SDS011;27925;41.874;12.526;2024-03-02T06:47:27;6.10;;;3.22;;
40537;SDS011;27925;41.874;12.526;2024-03-02T06:49:52;4.88;;;2.85;;
40537;SDS011;27925;41.874;12.526;2024-03-02T06:52:18;6.35;;;3.13;;
40537;SDS011;27925;41.874;12.526;2024-03-02T06:54:45;6.00;;;3.50;;
40537;SDS011;27925;41.874;12.526;2024-03-02T06:57:11;4.82;;;3.33;;
40537;SDS011;27925;41.874;12.526;2024-03-02T06:59:37;8.02;;;3.83;;
40537;SDS011;27925;41.874;12.526;2024-03-02T07:02:03;5.43;;;3.42;;
40537;SDS011;27925;41.874;12.526;2024-03-02T07:04:28;5.25;;;3.42;;
40537;SDS011;27925;41.874;12.526;2024-03-02T07:06:54;7.05;;;4.03;;
40537;SDS011;27925;41.874;12.526;2024-03-02T07:09:20;5.18;;;3.60;;
40537;SDS011;27925;41.874;12.526;2024-03-02T07:11:47;8.40;;;4.25;;
40537;SDS011;27925;41.874;12.526;2024-03-02T07:14:14;6.82;;;4.53;;
40537;SDS011;27925;41.874;12.526;2024-03-02T07:16:40;5.07;;;3.67;;
40537;SDS011;27925;41.874;12.526;2024-03-02T07:19:06;8.55;;;4.20;;
40537;SDS011;27925;41.874;12.526;2024-03-02T07:21:31;8.50;;;3.90;;
40537;SDS011;27925;41.874;12.526;2024-03-02T07:24:00;7.18;;;3.90;;
40537;SDS011;27925;41.874;12.526;2024-03-02T07:26:28;5.68;;;3.90;;
40537;SDS011;27925;41.874;12.526;2024-03-02T07:28:56;6.35;;;4.45;;
40537;SDS011;27925;41.874;12.526;2024-03-02T07:31:22;8.73;;;4.43;;
40537;SDS011;27925;41.874;12.526;2024-03-02T07:33:47;8.52;;;4.22;;
40537;SDS011;27925;41.874;12.526;2024-03-02T07:36:13;6.85;;;4.10;;
40537;SDS011;27925;41.874;12.526;2024-03-02T07:38:39;8.55;;;4.20;;
40537;SDS011;27925;41.874;12.526;2024-03-02T07:41:05;5.97;;;4.00;;
40537;SDS011;27925;41.874;12.526;2024-03-02T07:43:32;6.82;;;4.68;;
40537;SDS011;27925;41.874;12.526;2024-03-02T07:45:58;9.20;;;4.05;;
40537;SDS011;27925;41.874;12.526;2024-03-02T07:48:24;6.88;;;4.00;;
40537;SDS011;27925;41.874;12.526;2024-03-02T07:50:50;7.63;;;4.70;;
40537;SDS011;27925;41.874;12.526;2024-03-02T07:53:16;7.57;;;4.22;;
40537;SDS011;27925;41.874;12.526;2024-03-02T07:55:42;6.10;;;4.10;;
40537;SDS011;27925;41.874;12.526;2024-03-02T07:58:07;11.05;;;6.20;;
40537;SDS011;27925;41.874;12.526;2024-03-02T08:00:34;9.40;;;5.35;;
40537;SDS011;27925;41.874;12.526;2024-03-02T08:03:00;9.30;;;4.75;;
40537;SDS011;27925;41.874;12.526;2024-03-02T08:05:26;8.50;;;5.20;;
40537;SDS011;27925;41.874;12.526;2024-03-02T08:07:52;7.60;;;4.53;;
40537;SDS011;27925;41.874;12.526;2024-03-02T08:10:18;8.05;;;4.47;;
40537;SDS011;27925;41.874;12.526;2024-03-02T08:12:44;8.85;;;4.50;;
40537;SDS011;27925;41.874;12.526;2024-03-02T08:15:10;10.95;;;4.78;;
40537;SDS011;27925;41.874;12.526;2024-03-02T08:17:38;8.90;;;4.35;;
40537;SDS011;27925;41.874;12.526;2024-03-02T08:20:10;12.68;;;6.07;;
40537;SDS011;27925;41.874;12.526;2024-03-02T08:22:36;9.95;;;5.95;;
40537;SDS011;27925;41.874;12.526;2024-03-02T08:25:03;10.93;;;5.25;;
40537;SDS011;27925;41.874;12.526;2024-03-02T08:27:29;11.52;;;4.70;;
40537;SDS011;27925;41.874;12.526;2024-03-02T08:29:57;9.10;;;3.72;;
40537;SDS011;27925;41.874;12.526;2024-03-02T08:32:22;7.68;;;4.10;;
40537;SDS011;27925;41.874;12.526;2024-03-02T08:34:48;14.77;;;4.85;;
40537;SDS011;27925;41.874;12.526;2024-03-02T08:37:14;11.68;;;3.63;;
40537;SDS011;27925;41.874;12.526;2024-03-02T08:39:39;8.82;;;4.38;;
40537;SDS011;27925;41.874;12.526;2024-03-02T08:42:05;10.25;;;4.50;;
40537;SDS011;27925;41.874;12.526;2024-03-02T08:44:31;13.75;;;4.60;;
40537;SDS011;27925;41.874;12.526;2024-03-02T08:46:58;10.82;;;4.13;;
40537;SDS011;27925;41.874;12.526;2024-03-02T08:49:24;8.40;;;4.13;;
40537;SDS011;27925;41.874;12.526;2024-03-02T08:51:50;12.38;;;4.82;;
40537;SDS011;27925;41.874;12.526;2024-03-02T08:54:22;10.55;;;3.30;;
40537;SDS011;27925;41.874;12.526;2024-03-02T08:56:48;7.97;;;3.88;;
40537;SDS011;27925;41.874;12.526;2024-03-02T08:59:15;10.90;;;3.47;;
40537;SDS011;27925;41.874;12.526;2024-03-02T09:01:41;10.57;;;3.70;;
40537;SDS011;27925;41.874;12.526;2024-03-02T09:04:07;10.80;;;2.67;;
40537;SDS011;27925;41.874;12.526;2024-03-02T09:06:35;10.27;;;2.90;;
40537;SDS011;27925;41.874;12.526;2024-03-02T09:09:01;7.85;;;2.53;;
40537;SDS011;27925;41.874;12.526;2024-03-02T09:11:27;8.40;;;2.40;;
40537;SDS011;27925;41.874;12.526;2024-03-02T09:13:53;11.32;;;2.03;;
40537;SDS011;27925;41.874;12.526;2024-03-02T09:16:21;12.75;;;3.28;;
40537;SDS011;27925;41.874;12.526;2024-03-02T09:18:46;19.38;;;7.90;;
40537;SDS011;27925;41.874;12.526;2024-03-02T09:21:12;10.77;;;2.95;;
40537;SDS011;27925;41.874;12.526;2024-03-02T09:23:38;7.60;;;2.38;;
40537;SDS011;27925;41.874;12.526;2024-03-02T09:26:05;7.70;;;2.28;;
40537;SDS011;27925;41.874;12.526;2024-03-02T09:28:30;6.85;;;1.80;;
40537;SDS011;27925;41.874;12.526;2024-03-02T09:30:56;8.70;;;2.08;;
40537;SDS011;27925;41.874;12.526;2024-03-02T09:33:22;6.68;;;1.75;;
40537;SDS011;27925;41.874;12.526;2024-03-02T09:35:47;4.70;;;1.85;;
40537;SDS011;27925;41.874;12.526;2024-03-02T09:38:14;7.85;;;1.80;;
40537;SDS011;27925;41.874;12.526;2024-03-02T09:40:41;4.93;;;1.80;;
40537;SDS011;27925;41.874;12.526;2024-03-02T09:43:07;5.43;;;1.63;;
40537;SDS011;27925;41.874;12.526;2024-03-02T09:45:33;7.00;;;2.22;;
40537;SDS011;27925;41.874;12.526;2024-03-02T09:47:59;5.63;;;1.98;;
40537;SDS011;27925;41.874;12.526;2024-03-02T09:50:25;7.75;;;2.40;;
40537;SDS011;27925;41.874;12.526;2024-03-02T09:52:51;5.82;;;1.80;;
40537;SDS011;27925;41.874;12.526;2024-03-02T09:55:19;8.00;;;1.95;;
40537;SDS011;27925;41.874;12.526;2024-03-02T09:57:46;4.85;;;1.65;;
40537;SDS011;27925;41.874;12.526;2024-03-02T10:00:13;5.45;;;2.15;;
40537;SDS011;27925;41.874;12.526;2024-03-02T10:02:43;7.22;;;2.00;;
40537;SDS011;27925;41.874;12.526;2024-03-02T10:05:09;5.57;;;1.98;;
40537;SDS011;27925;41.874;12.526;2024-03-02T10:07:35;9.05;;;2.15;;
40537;SDS011;27925;41.874;12.526;2024-03-02T10:10:13;7.20;;;2.05;;
40537;SDS011;27925;41.874;12.526;2024-03-02T10:12:40;6.45;;;1.58;;
40537;SDS011;27925;41.874;12.526;2024-03-02T10:15:06;5.70;;;1.50;;
40537;SDS011;27925;41.874;12.526;2024-03-02T10:17:32;7.55;;;1.65;;
40537;SDS011;27925;41.874;12.526;2024-03-02T10:19:58;8.90;;;1.80;;
40537;SDS011;27925;41.874;12.526;2024-03-02T10:22:24;6.82;;;1.75;;
40537;SDS011;27925;41.874;12.526;2024-03-02T10:24:51;8.93;;;2.42;;
40537;SDS011;27925;41.874;12.526;2024-03-02T10:27:19;7.22;;;1.88;;
40537;SDS011;27925;41.874;12.526;2024-03-02T10:29:48;13.30;;;3.25;;
40537;SDS011;27925;41.874;12.526;2024-03-02T10:32:15;8.05;;;2.17;;
40537;SDS011;27925;41.874;12.526;2024-03-02T10:34:41;6.60;;;1.88;;
40537;SDS011;27925;41.874;12.526;2024-03-02T10:37:08;6.30;;;1.88;;
40537;SDS011;27925;41.874;12.526;2024-03-02T10:39:35;5.88;;;1.58;;
40537;SDS011;27925;41.874;12.526;2024-03-02T10:42:04;6.20;;;1.90;;
40537;SDS011;27925;41.874;12.526;2024-03-02T10:44:31;7.07;;;2.00;;
40537;SDS011;27925;41.874;12.526;2024-03-02T10:47:01;9.93;;;1.63;;
40537;SDS011;27925;41.874;12.526;2024-03-02T10:49:29;6.85;;;2.17;;
40537;SDS011;27925;41.874;12.526;2024-03-02T10:51:57;6.97;;;1.80;;
40537;SDS011;27925;41.874;12.526;2024-03-02T10:54:23;6.70;;;1.85;;
40537;SDS011;27925;41.874;12.526;2024-03-02T10:56:52;5.53;;;1.35;;
40537;SDS011;27925;41.874;12.526;2024-03-02T11:01:52;4.57;;;1.63;;
40537;SDS011;27925;41.874;12.526;2024-03-02T11:04:21;4.95;;;1.60;;
40537;SDS011;27925;41.874;12.526;2024-03-02T11:06:50;6.63;;;3.05;;
40537;SDS011;27925;41.874;12.526;2024-03-02T11:09:21;5.80;;;2.55;;
40537;SDS011;27925;41.874;12.526;2024-03-02T11:12:35;7.18;;;2.50;;
40537;SDS011;27925;41.874;12.526;2024-03-02T11:14:37;7.63;;;2.05;;
40537;SDS011;27925;41.874;12.526;2024-03-02T11:17:08;6.65;;;1.70;;
40537;SDS011;27925;41.874;12.526;2024-03-02T11:19:35;5.13;;;1.80;;
40537;SDS011;27925;41.874;12.526;2024-03-02T11:22:03;4.78;;;1.40;;
40537;SDS011;27925;41.874;12.526;2024-03-02T11:24:30;8.25;;;1.88;;
40537;SDS011;27925;41.874;12.526;2024-03-02T11:26:58;7.03;;;1.70;;
40537;SDS011;27925;41.874;12.526;2024-03-02T11:34:40;7.13;;;2.20;;
40537;SDS011;27925;41.874;12.526;2024-03-02T11:37:12;5.95;;;2.08;;
40537;SDS011;27925;41.874;12.526;2024-03-02T11:39:42;5.53;;;2.00;;
40537;SDS011;27925;41.874;12.526;2024-03-02T11:42:10;8.05;;;2.38;;
40537;SDS011;27925;41.874;12.526;2024-03-02T11:44:39;8.15;;;3.92;;
40537;SDS011;27925;41.874;12.526;2024-03-02T11:47:08;4.07;;;1.63;;
40537;SDS011;27925;41.874;12.526;2024-03-02T11:52:02;8.88;;;2.13;;
40537;SDS011;27925;41.874;12.526;2024-03-02T11:54:30;4.47;;;1.52;;
40537;SDS011;27925;41.874;12.526;2024-03-02T11:57:03;5.72;;;2.13;;
40537;SDS011;27925;41.874;12.526;2024-03-02T11:59:29;5.70;;;1.40;;
40537;SDS011;27925;41.874;12.526;2024-03-02T12:01:55;5.35;;;1.70;;
40537;SDS011;27925;41.874;12.526;2024-03-02T12:04:22;8.10;;;1.77;;
40537;SDS011;27925;41.874;12.526;2024-03-02T12:06:54;8.68;;;1.80;;
40537;SDS011;27925;41.874;12.526;2024-03-02T12:09:21;6.53;;;2.13;;
40537;SDS011;27925;41.874;12.526;2024-03-02T12:11:47;7.30;;;1.73;;
40537;SDS011;27925;41.874;12.526;2024-03-02T12:14:13;6.45;;;1.70;;
40537;SDS011;27925;41.874;12.526;2024-03-02T12:16:38;8.60;;;2.08;;
40537;SDS011;27925;41.874;12.526;2024-03-02T12:19:08;8.40;;;2.20;;
40537;SDS011;27925;41.874;12.526;2024-03-02T12:21:34;8.65;;;1.90;;
40537;SDS011;27925;41.874;12.526;2024-03-02T12:23:59;7.45;;;1.98;;
40537;SDS011;27925;41.874;12.526;2024-03-02T12:26:26;7.10;;;2.40;;
40537;SDS011;27925;41.874;12.526;2024-03-02T12:28:52;8.45;;;1.98;;
40537;SDS011;27925;41.874;12.526;2024-03-02T12:31:18;10.75;;;2.67;;
40537;SDS011;27925;41.874;12.526;2024-03-02T12:33:43;12.40;;;2.85;;
40537;SDS011;27925;41.874;12.526;2024-03-02T12:36:09;7.78;;;2.58;;
40537;SDS011;27925;41.874;12.526;2024-03-02T12:38:37;7.40;;;2.30;;
40537;SDS011;27925;41.874;12.526;2024-03-02T12:41:03;9.13;;;2.85;;
40537;SDS011;27925;41.874;12.526;2024-03-02T12:43:30;8.18;;;2.10;;
40537;SDS011;27925;41.874;12.526;2024-03-02T12:45:59;10.70;;;2.53;;
40537;SDS011;27925;41.874;12.526;2024-03-02T12:48:25;7.15;;;2.10;;
40537;SDS011;27925;41.874;12.526;2024-03-02T12:50:51;11.18;;;2.58;;
40537;SDS011;27925;41.874;12.526;2024-03-02T12:53:17;12.10;;;2.75;;
40537;SDS011;27925;41.874;12.526;2024-03-02T12:55:43;14.27;;;3.92;;
40537;SDS011;27925;41.874;12.526;2024-03-02T12:58:16;14.20;;;4.85;;
40537;SDS011;27925;41.874;12.526;2024-03-02T13:00:46;14.85;;;3.58;;
40537;SDS011;27925;41.874;12.526;2024-03-02T13:03:12;19.13;;;4.05;;
40537;SDS011;27925;41.874;12.526;2024-03-02T13:05:38;21.60;;;3.85;;
40537;SDS011;27925;41.874;12.526;2024-03-02T13:08:05;14.70;;;4.10;;
40537;SDS011;27925;41.874;12.526;2024-03-02T13:10:32;22.58;;;4.03;;
40537;SDS011;27925;41.874;12.526;2024-03-02T13:12:58;21.23;;;4.93;;
40537;SDS011;27925;41.874;12.526;2024-03-02T13:15:26;13.38;;;3.60;;
40537;SDS011;27925;41.874;12.526;2024-03-02T13:17:52;13.40;;;3.58;;
40537;SDS011;27925;41.874;12.526;2024-03-02T13:20:17;18.70;;;3.45;;
40537;SDS011;27925;41.874;12.526;2024-03-02T13:22:45;17.95;;;3.97;;
40537;SDS011;27925;41.874;12.526;2024-03-02T13:25:10;14.52;;;3.35;;
40537;SDS011;27925;41.874;12.526;2024-03-02T13:27:36;16.15;;;3.22;;
40537;SDS011;27925;41.874;12.526;2024-03-02T13:30:02;14.50;;;3.63;;
40537;SDS011;27925;41.874;12.526;2024-03-02T13:32:30;16.15;;;3.40;;
40537;SDS011;27925;41.874;12.526;2024-03-02T13:34:56;18.33;;;3.67;;
40537;SDS011;27925;41.874;12.526;2024-03-02T13:37:22;17.52;;;3.45;;
40537;SDS011;27925;41.874;12.526;2024-03-02T13:39:48;14.73;;;3.40;;
40537;SDS011;27925;41.874;12.526;2024-03-02T13:42:14;15.10;;;3.90;;
40537;SDS011;27925;41.874;12.526;2024-03-02T13:44:40;18.27;;;3.92;;
40537;SDS011;27925;41.874;12.526;2024-03-02T13:47:10;16.50;;;3.50;;
40537;SDS011;27925;41.874;12.526;2024-03-02T13:49:36;18.60;;;3.60;;
40537;SDS011;27925;41.874;12.526;2024-03-02T13:52:03;19.10;;;3.63;;
40537;SDS011;27925;41.874;12.526;2024-03-02T13:54:41;14.60;;;3.05;;
40537;SDS011;27925;41.874;12.526;2024-03-02T13:57:11;17.73;;;3.67;;
40537;SDS011;27925;41.874;12.526;2024-03-02T13:59:38;17.73;;;3.72;;
40537;SDS011;27925;41.874;12.526;2024-03-02T14:02:04;18.83;;;3.60;;
40537;SDS011;27925;41.874;12.526;2024-03-02T14:04:31;16.20;;;3.42;;
40537;SDS011;27925;41.874;12.526;2024-03-02T14:06:58;17.95;;;4.10;;
40537;SDS011;27925;41.874;12.526;2024-03-02T14:09:24;16.15;;;3.72;;
40537;SDS011;27925;41.874;12.526;2024-03-02T14:11:50;14.55;;;3.30;;
40537;SDS011;27925;41.874;12.526;2024-03-02T14:14:17;13.15;;;3.40;;
40537;SDS011;27925;41.874;12.526;2024-03-02T14:16:43;19.20;;;4.13;;
40537;SDS011;27925;41.874;12.526;2024-03-02T14:19:10;15.35;;;3.65;;
40537;SDS011;27925;41.874;12.526;2024-03-02T14:21:37;16.10;;;3.58;;
40537;SDS011;27925;41.874;12.526;2024-03-02T14:24:03;16.17;;;3.85;;
40537;SDS011;27925;41.874;12.526;2024-03-02T14:26:29;21.58;;;4.05;;
40537;SDS011;27925;41.874;12.526;2024-03-02T14:28:55;15.43;;;3.47;;
40537;SDS011;27925;41.874;12.526;2024-03-02T14:31:21;16.67;;;3.00;;
40537;SDS011;27925;41.874;12.526;2024-03-02T14:33:46;14.18;;;3.60;;
40537;SDS011;27925;41.874;12.526;2024-03-02T14:36:12;12.05;;;3.15;;
40537;SDS011;27925;41.874;12.526;2024-03-02T14:38:38;14.32;;;2.78;;
40537;SDS011;27925;41.874;12.526;2024-03-02T14:41:04;14.90;;;3.70;;
40537;SDS011;27925;41.874;12.526;2024-03-02T14:43:30;10.45;;;2.92;;
40537;SDS011;27925;41.874;12.526;2024-03-02T14:45:56;15.77;;;3.13;;
40537;SDS011;27925;41.874;12.526;2024-03-02T14:48:23;14.65;;;3.47;;